createdAt,value
2023-04-02T00:01:51.712Z,13.96
2023-04-02T00:04:23.354Z,13.88
2023-04-02T00:06:54.536Z,13.88
2023-04-02T00:09:32.110Z,13.93
2023-04-02T00:12:00.492Z,13.92
2023-04-02T00:14:33.447Z,13.90
2023-04-02T00:17:01.984Z,13.92
2023-04-02T00:19:31.010Z,13.92
2023-04-02T00:21:58.124Z,13.88
2023-04-02T00:24:24.898Z,13.90
2023-04-02T00:26:53.063Z,13.86
2023-04-02T00:29:20.256Z,13.86
2023-04-02T00:31:53.926Z,13.89
2023-04-02T00:34:32.823Z,13.88
2023-04-02T00:36:59.874Z,13.85
2023-04-02T00:39:27.854Z,13.86
2023-04-02T00:42:04.762Z,13.88
2023-04-02T00:44:39.070Z,13.83
2023-04-02T00:47:26.993Z,13.86
2023-04-02T00:50:16.073Z,13.84
2023-04-02T00:52:43.533Z,13.77
2023-04-02T00:55:37.398Z,13.80
2023-04-02T00:58:05.128Z,13.82
2023-04-02T01:00:36.151Z,13.82
2023-04-02T01:03:13.176Z,13.82
2023-04-02T01:05:40.135Z,13.83
2023-04-02T01:08:19.341Z,13.82
2023-04-02T01:10:49.105Z,13.81
2023-04-02T01:13:40.083Z,13.80
2023-04-02T01:16:42.319Z,13.81
2023-04-02T01:19:26.047Z,13.79
2023-04-02T01:22:12.080Z,13.77
2023-04-02T01:24:39.132Z,13.79
2023-04-02T01:27:30.055Z,13.78
2023-04-02T01:29:57.987Z,13.77
2023-04-02T01:32:26.972Z,13.77
2023-04-02T01:34:54.105Z,13.77
2023-04-02T01:37:32.303Z,13.78
2023-04-02T01:40:21.512Z,13.76
2023-04-02T01:43:22.920Z,13.75
2023-04-02T01:45:50.237Z,13.75
2023-04-02T01:48:19.871Z,13.74
2023-04-02T01:50:49.780Z,13.72
2023-04-02T01:53:17.051Z,13.73
2023-04-02T01:55:47.060Z,13.73
2023-04-02T01:58:14.272Z,13.74
2023-04-02T02:00:45.796Z,13.71
2023-04-02T02:03:12.929Z,13.72
2023-04-02T02:05:40.061Z,13.73
2023-04-02T02:08:08.720Z,13.70
2023-04-02T02:10:36.753Z,13.71
2023-04-02T02:13:03.754Z,13.71
2023-04-02T02:15:32.997Z,13.70
2023-04-02T02:18:03.123Z,13.71
2023-04-02T02:20:30.324Z,13.65
2023-04-02T02:22:57.465Z,13.70
2023-04-02T02:25:26.823Z,13.71
2023-04-02T02:28:29.040Z,13.69
2023-04-02T02:31:01.359Z,13.69
2023-04-02T02:33:39.492Z,13.67
2023-04-02T02:36:29.421Z,13.66
2023-04-02T02:38:57.308Z,13.67
2023-04-02T02:41:24.698Z,13.68
2023-04-02T02:43:54.937Z,13.66
2023-04-02T02:46:22.393Z,13.65
2023-04-02T02:48:49.300Z,13.66
2023-04-02T02:51:23.647Z,13.67
2023-04-02T02:53:52.640Z,13.67
2023-04-02T02:56:19.691Z,13.65
2023-04-02T02:58:46.410Z,13.66
2023-04-02T03:01:13.556Z,13.65
2023-04-02T03:03:40.774Z,13.63
2023-04-02T03:06:09.732Z,13.64
2023-04-02T03:08:54.127Z,13.64
2023-04-02T03:11:40.991Z,13.60
2023-04-02T03:14:16.736Z,13.61
2023-04-02T03:16:49.253Z,13.62
2023-04-02T03:19:28.307Z,13.63
2023-04-02T03:22:03.009Z,13.61
2023-04-02T03:24:37.049Z,13.63
2023-04-02T03:27:23.796Z,13.56
2023-04-02T03:30:15.569Z,13.59
2023-04-02T03:32:42.694Z,13.60
2023-04-02T03:35:35.728Z,13.60
2023-04-02T03:38:20.265Z,13.59
2023-04-02T03:41:03.085Z,13.59
2023-04-02T03:43:58.398Z,13.58
2023-04-02T03:46:28.482Z,13.58
2023-04-02T03:48:57.744Z,13.60
2023-04-02T03:51:28.864Z,13.60
2023-04-02T03:53:56.403Z,13.58
2023-04-02T03:56:31.765Z,13.58
2023-04-02T03:59:07.856Z,13.57
2023-04-02T04:01:50.292Z,13.58
2023-04-02T04:04:18.169Z,13.56
2023-04-02T04:06:45.755Z,13.55
2023-04-02T04:09:35.498Z,13.55
2023-04-02T04:12:07.924Z,13.56
2023-04-02T04:14:37.304Z,13.57
2023-04-02T04:17:09.436Z,13.50
2023-04-02T04:19:55.034Z,13.53
2023-04-02T04:22:34.070Z,13.54
2023-04-02T04:25:03.425Z,13.55
2023-04-02T04:27:48.316Z,13.51
2023-04-02T04:30:27.315Z,13.49
2023-04-02T04:32:58.245Z,13.54
2023-04-02T04:35:27.031Z,13.51
2023-04-02T04:38:27.765Z,13.52
2023-04-02T04:40:56.877Z,13.50
2023-04-02T04:43:38.743Z,13.48
2023-04-02T04:46:08.720Z,13.51
2023-04-02T04:48:38.922Z,13.49
2023-04-02T04:51:09.091Z,13.50
2023-04-02T04:53:41.017Z,13.48
2023-04-02T04:56:18.593Z,13.43
2023-04-02T04:59:21.992Z,13.43
2023-04-02T05:02:19.307Z,13.42
2023-04-02T05:04:50.828Z,13.39
2023-04-02T05:07:29.093Z,13.41
2023-04-02T05:10:02.752Z,13.36
2023-04-02T05:12:35.443Z,13.36
2023-04-02T05:15:37.887Z,13.32
2023-04-02T05:18:23.463Z,13.30
2023-04-02T05:21:20.978Z,13.28
2023-04-02T05:23:58.887Z,13.27
2023-04-02T05:26:30.591Z,13.21
2023-04-02T05:29:01.550Z,13.14
2023-04-02T05:31:39.505Z,13.07
2023-04-02T05:34:06.674Z,13.07
2023-04-02T05:36:33.515Z,13.00
2023-04-02T05:39:00.647Z,13.01
2023-04-02T05:41:36.962Z,12.95
2023-04-02T05:44:16.496Z,12.90
2023-04-02T05:46:49.991Z,12.87
2023-04-02T05:49:31.350Z,12.85
2023-04-02T05:52:00.104Z,12.84
2023-04-02T05:54:39.482Z,12.83
2023-04-02T05:57:11.940Z,12.75
2023-04-02T05:59:43.949Z,12.75
2023-04-02T06:02:22.847Z,12.74
2023-04-02T06:05:12.946Z,12.74
2023-04-02T06:07:59.162Z,12.78
2023-04-02T06:10:28.662Z,12.73
2023-04-02T06:13:03.486Z,12.68
2023-04-02T06:15:31.078Z,12.64
2023-04-02T06:18:22.081Z,12.69
2023-04-02T06:20:49.195Z,12.64
2023-04-02T06:23:30.931Z,12.68
2023-04-02T06:26:22.410Z,12.60
2023-04-02T06:28:56.173Z,12.53
2023-04-02T06:31:58.742Z,12.53
2023-04-02T06:34:26.119Z,12.52
2023-04-02T06:37:15.107Z,12.44
2023-04-02T06:39:41.895Z,12.44
2023-04-02T06:42:13.867Z,12.42
2023-04-02T06:44:40.691Z,12.42
2023-04-02T06:47:20.020Z,12.46
2023-04-02T06:50:07.775Z,12.35
2023-04-02T06:52:37.603Z,12.34
2023-04-02T06:55:34.117Z,12.26
2023-04-02T06:58:01.501Z,12.29
2023-04-02T07:00:34.595Z,12.27
2023-04-02T07:03:02.162Z,12.25
2023-04-02T07:05:28.985Z,12.28
2023-04-02T07:07:56.260Z,12.27
2023-04-02T07:10:23.043Z,12.27
2023-04-02T07:12:50.212Z,12.17
2023-04-02T07:15:17.477Z,12.10
2023-04-02T07:17:44.870Z,12.04
2023-04-02T07:20:31.277Z,12.09
2023-04-02T07:22:58.481Z,12.07
2023-04-02T07:25:25.597Z,11.96
2023-04-02T07:27:52.823Z,11.85
2023-04-02T07:30:19.746Z,11.80
2023-04-02T07:32:47.140Z,11.89
2023-04-02T07:35:14.024Z,11.94
2023-04-02T07:37:41.231Z,11.96
2023-04-02T07:40:19.091Z,12.00
2023-04-02T07:42:46.302Z,11.95
2023-04-02T07:45:13.488Z,11.78
2023-04-02T07:47:40.751Z,11.67
2023-04-02T07:50:08.316Z,11.75
2023-04-02T07:52:42.697Z,11.67
2023-04-02T07:55:13.735Z,11.65
2023-04-02T07:57:43.664Z,11.67
2023-04-02T08:00:12.238Z,11.68
2023-04-02T08:02:39.390Z,11.68
2023-04-02T08:05:06.889Z,11.76
2023-04-02T08:07:34.008Z,11.76
2023-04-02T08:10:00.897Z,11.60
2023-04-02T08:12:27.992Z,11.49
2023-04-02T08:14:54.742Z,11.51
2023-04-02T08:17:22.029Z,11.64
2023-04-02T08:19:55.204Z,11.66
2023-04-02T08:22:22.589Z,11.62
2023-04-02T08:24:49.358Z,11.65
2023-04-02T08:27:16.728Z,11.62
2023-04-02T08:29:43.496Z,11.67
2023-04-02T08:32:12.045Z,11.69
2023-04-02T08:34:38.784Z,11.68
2023-04-02T08:37:05.965Z,11.61
2023-04-02T08:39:34.314Z,11.65
2023-04-02T08:42:12.803Z,11.62
2023-04-02T08:45:25.738Z,11.56
2023-04-02T08:47:55.434Z,11.56
2023-04-02T08:50:31.073Z,11.58
2023-04-02T08:52:59.183Z,11.61
2023-04-02T08:55:37.216Z,11.59
2023-04-02T08:58:28.831Z,11.56
2023-04-02T09:00:55.905Z,11.54
2023-04-02T09:03:35.776Z,11.43
2023-04-02T09:06:02.824Z,11.28
2023-04-02T09:08:30.982Z,11.40
2023-04-02T09:11:08.193Z,11.49
2023-04-02T09:13:37.720Z,11.54
2023-04-02T09:16:08.999Z,11.56
2023-04-02T09:18:36.271Z,11.43
2023-04-02T09:21:23.383Z,11.41
2023-04-02T09:23:50.663Z,11.38
2023-04-02T09:26:22.904Z,11.37
2023-04-02T09:29:03.460Z,11.35
2023-04-02T09:31:41.635Z,11.30
2023-04-02T09:34:31.697Z,11.26
2023-04-02T09:37:07.554Z,11.23
2023-04-02T09:39:35.602Z,11.27
2023-04-02T09:42:07.783Z,11.30
2023-04-02T09:44:35.139Z,11.30
2023-04-02T09:47:07.091Z,11.17
2023-04-02T09:49:35.619Z,11.27
2023-04-02T09:52:07.020Z,11.32
2023-04-02T09:54:41.517Z,11.35
2023-04-02T09:57:38.819Z,11.24
2023-04-02T10:00:30.416Z,11.25
2023-04-02T10:03:23.600Z,11.29
2023-04-02T10:06:04.523Z,11.23
2023-04-02T10:08:31.425Z,11.17
2023-04-02T10:11:00.589Z,11.21
2023-04-02T10:13:46.347Z,11.26
2023-04-02T10:16:15.608Z,11.13
2023-04-02T10:18:58.602Z,11.11
2023-04-02T10:21:27.481Z,11.12
2023-04-02T10:23:55.061Z,11.17
2023-04-02T10:26:22.144Z,11.14
2023-04-02T10:29:25.319Z,11.11
2023-04-02T10:32:31.600Z,11.08
2023-04-02T10:35:05.769Z,11.15
2023-04-02T10:37:54.434Z,11.16
2023-04-02T10:40:23.502Z,11.12
2023-04-02T10:43:07.224Z,11.08
2023-04-02T10:46:09.473Z,11.02
2023-04-02T10:48:52.799Z,11.08
2023-04-02T10:51:41.563Z,11.19
2023-04-02T10:54:38.626Z,11.23
2023-04-02T10:57:10.667Z,11.20
2023-04-02T10:59:40.332Z,11.18
2023-04-02T11:02:32.038Z,11.12
2023-04-02T11:05:02.444Z,11.05
2023-04-02T11:07:29.939Z,11.09
2023-04-02T11:09:57.529Z,11.13
2023-04-02T11:12:41.896Z,11.09
2023-04-02T11:15:19.187Z,11.11
2023-04-02T11:17:46.159Z,11.09
2023-04-02T11:20:48.621Z,11.11
2023-04-02T11:23:18.432Z,11.18
2023-04-02T11:25:45.697Z,11.23
2023-04-02T11:28:32.799Z,11.23
2023-04-02T11:31:00.308Z,11.25
2023-04-02T11:33:39.344Z,11.26
2023-04-02T11:36:53.054Z,11.30
2023-04-02T11:39:51.087Z,11.27
2023-04-02T11:42:18.138Z,11.30
2023-04-02T11:44:45.329Z,11.33
2023-04-02T11:47:25.253Z,11.43
2023-04-02T11:49:55.383Z,11.32
2023-04-02T11:52:34.094Z,11.32
2023-04-02T11:55:15.589Z,11.29
2023-04-02T11:58:23.940Z,11.24
2023-04-02T12:00:57.499Z,11.19
2023-04-02T12:03:42.217Z,11.29
2023-04-02T12:06:20.925Z,11.33
2023-04-02T12:09:14.873Z,11.31
2023-04-02T12:11:41.810Z,11.37
2023-04-02T12:14:47.452Z,11.39
2023-04-02T12:17:19.583Z,11.41
2023-04-02T12:19:51.594Z,11.37
2023-04-02T12:22:22.725Z,11.32
2023-04-02T12:24:50.135Z,11.38
2023-04-02T12:27:22.552Z,11.28
2023-04-02T12:29:51.211Z,11.34
2023-04-02T12:32:22.112Z,11.35
2023-04-02T12:34:49.231Z,11.38
2023-04-02T12:37:23.970Z,11.39
2023-04-02T12:40:05.578Z,11.46
2023-04-02T12:42:34.143Z,11.40
2023-04-02T12:45:01.603Z,11.46
2023-04-02T12:47:28.603Z,11.44
2023-04-02T12:49:56.915Z,11.37
2023-04-02T12:52:28.572Z,11.33
2023-04-02T12:55:00.455Z,11.32
2023-04-02T12:57:30.377Z,11.33
2023-04-02T13:00:24.688Z,11.31
2023-04-02T13:02:52.889Z,11.32
2023-04-02T13:05:41.225Z,11.28
2023-04-02T13:08:39.022Z,11.25
2023-04-02T13:11:06.351Z,11.28
2023-04-02T13:13:37.419Z,11.26
2023-04-02T13:16:25.177Z,11.25
2023-04-02T13:18:52.116Z,11.32
2023-04-02T13:21:19.639Z,11.36
2023-04-02T13:23:46.601Z,11.33
2023-04-02T13:26:21.988Z,11.29
2023-04-02T13:28:56.522Z,11.19
2023-04-02T13:31:23.835Z,11.14
2023-04-02T13:33:50.646Z,11.18
2023-04-02T13:36:17.862Z,11.27
2023-04-02T13:38:44.636Z,11.17
2023-04-02T13:41:22.871Z,11.23
2023-04-02T13:43:53.509Z,11.17
2023-04-02T13:46:26.412Z,11.13
2023-04-02T13:48:54.063Z,11.14
2023-04-02T13:51:27.412Z,11.12
2023-04-02T13:53:55.565Z,11.16
2023-04-02T13:56:24.604Z,11.21
2023-04-02T13:58:51.885Z,11.24
2023-04-02T14:01:20.781Z,11.14
2023-04-02T14:03:47.629Z,10.98
2023-04-02T14:06:36.712Z,10.93
2023-04-02T14:09:05.637Z,10.93
2023-04-02T14:11:51.454Z,10.97
2023-04-02T14:14:40.137Z,10.91
2023-04-02T14:17:16.272Z,10.94
2023-04-02T14:19:49.095Z,10.95
2023-04-02T14:22:26.450Z,10.95
2023-04-02T14:25:15.389Z,10.96
2023-04-02T14:28:15.865Z,11.01
2023-04-02T14:30:58.473Z,10.91
2023-04-02T14:33:37.730Z,10.87
2023-04-02T14:36:15.920Z,10.82
2023-04-02T14:38:56.180Z,10.91
2023-04-02T14:41:33.742Z,10.92
2023-04-02T14:44:03.369Z,10.90
2023-04-02T14:46:31.420Z,10.86
2023-04-02T14:49:10.317Z,10.91
2023-04-02T14:51:43.522Z,10.96
2023-04-02T14:54:27.672Z,10.86
2023-04-02T14:56:57.466Z,10.86
2023-04-02T14:59:44.334Z,10.87
2023-04-02T15:02:22.421Z,10.84
2023-04-02T15:05:02.208Z,10.85
2023-04-02T15:07:33.644Z,10.86
2023-04-02T15:10:29.327Z,10.82
2023-04-02T15:12:56.813Z,10.76
2023-04-02T15:15:43.029Z,10.81
2023-04-02T15:18:13.798Z,10.85
2023-04-02T15:20:53.969Z,10.73
2023-04-02T15:23:32.942Z,10.75
2023-04-02T15:26:19.761Z,10.85
2023-04-02T15:28:51.773Z,10.83
2023-04-02T15:31:18.932Z,10.82
2023-04-02T15:33:53.664Z,10.79
2023-04-02T15:36:48.350Z,10.77
2023-04-02T15:39:22.109Z,10.85
2023-04-02T15:42:18.025Z,10.82
2023-04-02T15:44:52.817Z,10.69
2023-04-02T15:47:22.849Z,10.65
2023-04-02T15:50:15.869Z,10.65
2023-04-02T15:53:01.105Z,10.64
2023-04-02T15:55:41.906Z,10.71
2023-04-02T15:58:15.487Z,10.68
2023-04-02T16:01:11.714Z,10.67
2023-04-02T16:04:03.930Z,10.65
2023-04-02T16:06:32.496Z,10.63
2023-04-02T16:09:17.539Z,10.61
2023-04-02T16:11:44.451Z,10.64
2023-04-02T16:14:30.680Z,10.57
2023-04-02T16:17:17.544Z,10.62
2023-04-02T16:19:53.142Z,10.59
2023-04-02T16:22:29.051Z,10.57
2023-04-02T16:25:20.643Z,10.54
2023-04-02T16:28:09.263Z,10.49
2023-04-02T16:30:58.550Z,10.44
2023-04-02T16:33:34.447Z,10.48
2023-04-02T16:36:28.457Z,10.45
2023-04-02T16:39:01.694Z,10.46
2023-04-02T16:41:39.872Z,10.47
2023-04-02T16:44:39.955Z,10.44
2023-04-02T16:47:13.191Z,10.43
2023-04-02T16:49:48.998Z,10.44
2023-04-02T16:52:58.018Z,10.47
2023-04-02T16:55:32.832Z,10.46
2023-04-02T16:58:12.077Z,10.42
2023-04-02T17:00:56.289Z,10.43
2023-04-02T17:03:46.741Z,10.39
2023-04-02T17:06:19.705Z,10.41
2023-04-02T17:08:54.589Z,10.43
2023-04-02T17:11:24.362Z,10.37
2023-04-02T17:14:06.250Z,10.36
2023-04-02T17:16:46.342Z,10.29
2023-04-02T17:19:14.915Z,10.29
2023-04-02T17:21:43.548Z,10.31
2023-04-02T17:24:14.330Z,10.30
2023-04-02T17:26:41.164Z,10.30
2023-04-02T17:29:09.725Z,10.25
2023-04-02T17:31:37.447Z,10.22
2023-04-02T17:34:17.698Z,10.24
2023-04-02T17:36:51.178Z,10.23
2023-04-02T17:39:22.426Z,10.24
2023-04-02T17:41:53.771Z,10.21
2023-04-02T17:44:43.911Z,10.22
2023-04-02T17:47:32.598Z,10.18
2023-04-02T17:50:12.550Z,10.17
2023-04-02T17:52:53.371Z,10.17
2023-04-02T17:55:27.271Z,10.15
2023-04-02T17:58:12.829Z,10.11
2023-04-02T18:00:58.695Z,10.13
2023-04-02T18:03:37.679Z,10.12
2023-04-02T18:06:08.784Z,10.07
2023-04-02T18:08:52.512Z,9.99
2023-04-02T18:11:31.866Z,9.98
2023-04-02T18:14:41.982Z,9.92
2023-04-02T18:17:12.105Z,9.91
2023-04-02T18:19:42.114Z,9.93
2023-04-02T18:22:51.113Z,9.94
2023-04-02T18:25:29.748Z,9.98
2023-04-02T18:28:04.819Z,9.97
2023-04-02T18:30:41.675Z,10.01
2023-04-02T18:33:33.446Z,9.95
2023-04-02T18:38:52.585Z,9.94
2023-04-02T18:41:56.447Z,9.98
2023-04-02T18:44:43.499Z,9.94
2023-04-02T18:47:19.975Z,9.94
2023-04-02T18:49:51.911Z,9.95
2023-04-02T18:52:18.834Z,9.95
2023-04-02T18:54:53.268Z,9.96
2023-04-02T18:57:24.030Z,9.96
2023-04-02T19:00:02.452Z,9.95
2023-04-02T19:02:42.995Z,9.86
2023-04-02T19:05:26.348Z,9.84
2023-04-02T19:07:58.227Z,9.84
2023-04-02T19:10:33.484Z,9.84
2023-04-02T19:13:00.559Z,9.84
2023-04-02T19:15:40.500Z,9.87
2023-04-02T19:18:39.087Z,9.82
2023-04-02T19:21:39.137Z,9.84
2023-04-02T19:24:30.642Z,9.84
2023-04-02T19:27:23.882Z,9.84
2023-04-02T19:30:21.762Z,9.84
2023-04-02T19:33:33.996Z,9.80
2023-04-02T19:36:08.242Z,9.81
2023-04-02T19:39:00.829Z,9.76
2023-04-02T19:41:49.874Z,9.74
2023-04-02T19:44:17.100Z,9.79
2023-04-02T19:46:43.909Z,9.78
2023-04-02T19:49:16.960Z,9.77
2023-04-02T19:51:43.986Z,9.74
2023-04-02T19:54:11.275Z,9.68
2023-04-02T19:56:38.077Z,9.64
2023-04-02T19:59:17.036Z,9.65
2023-04-02T20:01:44.787Z,9.62
2023-04-02T20:04:11.910Z,9.55
2023-04-02T20:06:38.754Z,9.58
2023-04-02T20:09:07.534Z,9.56
2023-04-02T20:11:34.926Z,9.54
2023-04-02T20:14:02.059Z,9.54
2023-04-02T20:16:28.863Z,9.56
2023-04-02T20:18:56.491Z,9.55
2023-04-02T20:21:23.302Z,9.53
2023-04-02T20:23:54.405Z,9.52
2023-04-02T20:26:22.290Z,9.55
2023-04-02T20:28:49.400Z,9.60
2023-04-02T20:31:17.390Z,9.60
2023-04-02T20:33:44.789Z,9.55
2023-04-02T20:36:16.290Z,9.49
2023-04-02T20:38:43.528Z,9.51
2023-04-02T20:41:10.388Z,9.52
2023-04-02T20:43:40.345Z,9.54
2023-04-02T20:46:10.773Z,9.54
2023-04-02T20:48:38.898Z,9.56
2023-04-02T20:51:06.789Z,9.55
2023-04-02T20:53:37.248Z,9.55
2023-04-02T20:56:10.205Z,9.52
2023-04-02T20:58:37.753Z,9.56
2023-04-02T21:01:07.636Z,9.57
2023-04-02T21:03:34.765Z,9.54
2023-04-02T21:06:01.596Z,9.51
2023-04-02T21:08:28.771Z,9.54
2023-04-02T21:11:02.074Z,9.52
2023-04-02T21:13:30.919Z,9.52
2023-04-02T21:15:57.929Z,9.49
2023-04-02T21:18:25.122Z,9.46
2023-04-02T21:20:59.177Z,9.45
2023-04-02T21:23:26.686Z,9.42
2023-04-02T21:25:58.040Z,9.36
2023-04-02T21:28:25.446Z,9.35
2023-04-02T21:30:52.464Z,9.37
2023-04-02T21:33:19.602Z,9.34
2023-04-02T21:35:46.392Z,9.35
2023-04-02T21:38:13.499Z,9.38
2023-04-02T21:40:40.292Z,9.38
2023-04-02T21:43:07.324Z,9.34
2023-04-02T21:45:34.354Z,9.32
2023-04-02T21:48:01.652Z,9.36
2023-04-02T21:50:28.588Z,9.37
2023-04-02T21:52:55.899Z,9.33
2023-04-02T21:55:22.632Z,9.29
2023-04-02T21:57:49.766Z,9.25
2023-04-02T22:00:16.764Z,9.26
2023-04-02T22:02:43.871Z,9.31
2023-04-02T22:05:10.707Z,9.34
2023-04-02T22:07:37.818Z,9.24
2023-04-02T22:10:04.816Z,9.23
2023-04-02T22:12:31.897Z,9.17
2023-04-02T22:14:58.656Z,9.21
2023-04-02T22:17:25.702Z,9.20
2023-04-02T22:19:52.432Z,9.21
2023-04-02T22:22:19.492Z,9.17
2023-04-02T22:24:46.408Z,9.22
2023-04-02T22:27:13.453Z,9.18
2023-04-02T22:29:40.199Z,9.16
2023-04-02T22:32:07.259Z,9.21
2023-04-02T22:34:34.050Z,9.24
2023-04-02T22:37:01.007Z,9.23
2023-04-02T22:39:27.833Z,9.23
2023-04-02T22:41:54.906Z,9.21
2023-04-02T22:44:21.735Z,9.21
2023-04-02T22:46:48.789Z,9.21
2023-04-02T22:49:19.364Z,9.19
2023-04-02T22:51:46.872Z,9.21
2023-04-02T22:54:13.759Z,9.21
2023-04-02T22:56:41.174Z,9.22
2023-04-02T22:59:07.920Z,9.20
2023-04-02T23:01:35.444Z,9.15
2023-04-02T23:04:02.230Z,9.15
2023-04-02T23:06:29.467Z,9.13
2023-04-02T23:08:56.528Z,9.11
2023-04-02T23:11:25.924Z,9.10
2023-04-02T23:13:53.863Z,9.10
2023-04-02T23:16:21.399Z,9.08
2023-04-02T23:18:48.386Z,9.09
2023-04-02T23:21:16.527Z,9.09
2023-04-02T23:23:45.365Z,9.12
2023-04-02T23:26:16.945Z,9.13
2023-04-02T23:28:43.759Z,9.12
2023-04-02T23:31:21.528Z,9.09
2023-04-02T23:33:48.580Z,9.06
2023-04-02T23:36:20.594Z,9.05
2023-04-02T23:38:47.514Z,9.06
2023-04-02T23:41:15.407Z,9.05
2023-04-02T23:43:42.294Z,9.04
2023-04-02T23:46:09.360Z,9.06
2023-04-02T23:48:36.212Z,9.09
2023-04-02T23:51:03.393Z,9.08
2023-04-02T23:53:30.192Z,9.07
2023-04-02T23:55:57.399Z,9.07
2023-04-02T23:58:24.179Z,9.07
